createdAt,value
2022-10-01T00:04:29.908Z,9.40
2022-10-01T00:14:34.497Z,9.40
2022-10-01T00:24:37.806Z,9.40
2022-10-01T00:34:42.553Z,9.40
2022-10-01T00:44:46.450Z,9.30
2022-10-01T00:54:55.733Z,9.30
2022-10-01T01:04:59.066Z,9.20
2022-10-01T01:15:16.100Z,9.10
2022-10-01T01:25:23.657Z,9.10
2022-10-01T01:35:33.263Z,9.00
2022-10-01T01:45:40.072Z,9.10
2022-10-01T01:55:49.242Z,9.20
2022-10-01T02:06:07.329Z,9.20
2022-10-01T02:16:23.451Z,9.20
2022-10-01T02:26:29.773Z,9.00
2022-10-01T02:36:36.057Z,8.90
2022-10-01T02:46:45.388Z,8.80
2022-10-01T02:57:10.605Z,8.80
2022-10-01T03:07:13.817Z,8.80
2022-10-01T03:17:19.049Z,8.90
2022-10-01T03:27:23.368Z,8.80
2022-10-01T03:37:28.092Z,8.80
2022-10-01T03:47:31.316Z,8.80
2022-10-01T03:57:35.997Z,9.00
2022-10-01T04:07:39.399Z,9.10
2022-10-01T04:17:46.076Z,9.10
2022-10-01T04:28:00.144Z,9.00
2022-10-01T04:38:07.405Z,9.00
2022-10-01T04:48:10.613Z,9.10
2022-10-01T04:58:15.415Z,9.10
2022-10-01T05:08:18.677Z,9.30
2022-10-01T05:18:23.344Z,9.40
2022-10-01T05:28:27.097Z,9.60
2022-10-01T05:38:31.843Z,9.80
2022-10-01T05:48:37.051Z,10.30
2022-10-01T05:58:41.814Z,10.50
2022-10-01T06:08:46.905Z,10.50
2022-10-01T06:18:57.374Z,10.50
2022-10-01T06:29:00.837Z,10.60
2022-10-01T06:39:05.637Z,10.50
2022-10-01T06:49:09.058Z,10.90
2022-10-01T06:59:13.782Z,11.20
2022-10-01T07:09:17.023Z,11.70
2022-10-01T07:19:21.601Z,11.80
2022-10-01T07:29:25.149Z,11.90
2022-10-01T07:39:30.621Z,11.80
2022-10-01T07:49:33.878Z,12.20
2022-10-01T07:59:39.176Z,12.30
2022-10-01T08:09:42.431Z,12.20
2022-10-01T08:19:47.042Z,12.40
2022-10-01T08:29:50.260Z,12.70
2022-10-01T08:39:55.686Z,12.90
2022-10-01T08:50:07.535Z,13.00
2022-10-01T09:00:16.616Z,13.10
2022-10-01T09:10:36.933Z,13.40
2022-10-01T09:20:46.624Z,13.70
2022-10-01T09:30:57.641Z,13.70
2022-10-01T09:41:02.467Z,13.90
2022-10-01T09:51:12.229Z,14.10
2022-10-01T10:01:25.948Z,14.00
2022-10-01T10:11:32.389Z,15.30
2022-10-01T10:21:38.166Z,15.00
2022-10-01T10:31:45.675Z,14.90
2022-10-01T10:41:52.790Z,14.80
2022-10-01T10:51:57.484Z,15.00
2022-10-01T11:02:06.030Z,14.70
2022-10-01T11:12:29.255Z,15.00
2022-10-01T11:22:53.741Z,15.70
2022-10-01T11:33:10.785Z,16.00
2022-10-01T11:43:22.429Z,16.10
2022-10-01T11:53:33.354Z,16.40
2022-10-01T12:03:51.122Z,16.30
2022-10-01T12:14:03.600Z,16.40
2022-10-01T12:24:15.134Z,17.30
2022-10-01T12:34:29.261Z,16.80
2022-10-01T12:44:57.240Z,16.60
2022-10-01T12:55:34.353Z,16.00
2022-10-01T13:05:53.181Z,15.30
2022-10-01T13:16:05.278Z,15.10
2022-10-01T13:26:18.491Z,16.20
2022-10-01T13:36:32.149Z,15.80
2022-10-01T13:46:50.301Z,15.20
2022-10-01T13:56:53.688Z,15.00
2022-10-01T14:07:02.550Z,14.80
2022-10-01T14:17:07.960Z,14.40
2022-10-01T14:27:21.305Z,14.10
2022-10-01T14:37:24.881Z,13.90
2022-10-01T14:47:35.635Z,13.80
2022-10-01T14:57:42.530Z,13.70
2022-10-01T15:07:48.097Z,13.40
2022-10-01T15:17:51.885Z,13.20
2022-10-01T15:27:56.741Z,13.20
2022-10-01T15:38:00.808Z,13.00
2022-10-01T15:48:05.784Z,12.70
2022-10-01T15:58:16.877Z,12.50
2022-10-01T16:08:25.392Z,12.30
2022-10-01T16:18:32.952Z,12.10
2022-10-01T16:28:37.762Z,12.00
2022-10-01T16:38:41.051Z,11.80
2022-10-01T16:48:47.376Z,11.50
2022-10-01T16:58:50.589Z,11.30
2022-10-01T17:08:55.490Z,11.10
2022-10-01T17:18:58.800Z,11.10
2022-10-01T17:29:03.558Z,11.00
2022-10-01T17:39:06.788Z,11.00
2022-10-01T17:49:19.958Z,10.90
2022-10-01T17:59:23.490Z,10.80
2022-10-01T18:09:28.146Z,10.70
2022-10-01T18:19:53.026Z,10.70
2022-10-01T18:29:56.146Z,10.70
2022-10-01T18:40:07.035Z,10.60
2022-10-01T18:50:25.803Z,10.70
2022-10-01T19:00:37.700Z,10.70
2022-10-01T19:10:49.768Z,10.70
2022-10-01T19:21:04.932Z,10.80
2022-10-01T19:31:17.219Z,10.50
2022-10-01T19:41:26.772Z,10.20
2022-10-01T19:51:38.795Z,9.90
2022-10-01T20:01:52.603Z,9.70
2022-10-01T20:12:05.651Z,9.50
2022-10-01T20:22:20.031Z,9.40
2022-10-01T20:32:31.761Z,9.30
2022-10-01T20:42:40.413Z,9.20
2022-10-01T20:52:53.329Z,9.10
2022-10-01T21:03:05.851Z,9.00
2022-10-01T21:13:17.604Z,9.00
2022-10-01T21:23:45.947Z,9.00
2022-10-01T21:33:54.716Z,8.90
2022-10-01T21:44:48.118Z,8.90
2022-10-01T21:55:17.757Z,8.70
2022-10-01T22:05:29.406Z,8.70
2022-10-01T22:15:39.714Z,8.70
2022-10-01T22:25:51.587Z,8.60
2022-10-01T22:36:03.000Z,8.30
2022-10-01T22:46:40.525Z,8.30
2022-10-01T22:56:57.347Z,8.30
2022-10-01T23:07:15.456Z,8.50
2022-10-01T23:17:27.951Z,8.60
2022-10-01T23:27:39.880Z,8.80
2022-10-01T23:38:06.353Z,8.90
2022-10-01T23:48:17.231Z,9.00
2022-10-01T23:58:24.284Z,9.00
